This is the latest recevied weather packets stored in our database for station/object AC5JC-1. If no packets are shown the sender has not sent any weather packets the latest 10 day(s).
| Time | Temp. | Humidity | Pressure | Rain* | Wind** | Luminosity | Snow |
|---|---|---|---|---|---|---|---|
| 1777649735 | 15° C | 80% | 1018 hPa | 0 mm | - | 231 W/m² | - |
| 1777644654 | 13.89° C | 90% | 1018 hPa | 0 mm | - | 46 W/m² | - |
| 1777644330 | 13.89° C | 90% | 1017.8 hPa | 0 mm | - | 34 W/m² | - |
| 1777644073 | 13.89° C | 90% | 1017.6 hPa | 0 mm | - | 39 W/m² | - |
| 1777641673 | 13.89° C | 92% | 1017.1 hPa | 0 mm | - | 18 W/m² | - |
| 1777637449 | 13.89° C | 94% | 1017.1 hPa | 0 mm | - | 2 W/m² | - |
| 1777636553 | 13.89° C | 93% | 1016.4 hPa | 0 mm | - | 0 W/m² | - |
| 1777635979 | 13.89° C | 93% | 1015.9 hPa | 0 mm | - | 0 W/m² | - |
| 1777635338 | 13.89° C | 93% | 1015.9 hPa | 0 mm | - | 0 W/m² | - |
| 1777630281 | 13.89° C | 93% | 1016.6 hPa | 0 mm | - | 0 W/m² | - |
| 1777629984 | 13.89° C | 92% | 1016.5 hPa | 0 mm | - | 0 W/m² | - |
| 1777628746 | 13.89° C | 92% | 1016.3 hPa | 0 mm | - | 0 W/m² | - |
| 1777628426 | 13.89° C | 92% | 1016.3 hPa | 0 mm | - | 0 W/m² | - |
| 1777627869 | 13.89° C | 92% | 1016.4 hPa | 0 mm | - | 0 W/m² | - |
| 1777625434 | 13.89° C | 89% | 1015.8 hPa | 0 mm | - | 0 W/m² | - |
| 1777624535 | 13.89° C | 89% | 1016.1 hPa | 0 mm | - | 0 W/m² | - |
| 1777623641 | 13.89° C | 89% | 1016 hPa | 0 mm | - | 0 W/m² | - |
| 1777618569 | 14.44° C | 92% | 1017.1 hPa | 0 mm | - | 0 W/m² | - |
| 1777615235 | 15° C | 92% | 1017.4 hPa | 0 mm | - | 0 W/m² | - |
| 1777614922 | 15° C | 92% | 1017.4 hPa | 0 mm | - | 0 W/m² | - |
| 1777614367 | 15° C | 91% | 1017.2 hPa | 0 mm | - | 0 W/m² | - |
| 1777613452 | 15° C | 89% | 1017.2 hPa | 0 mm | - | 0 W/m² | - |
| 1777611945 | 15.56° C | 88% | 1016.8 hPa | 0 mm | - | 0 W/m² | - |
| 1777611678 | 15.56° C | 88% | 1016.6 hPa | 0 mm | - | 0 W/m² | - |
| 1777610807 | 15° C | 90% | 1016.8 hPa | 0 mm | - | 0 W/m² | - |
* Rain latest hour (hover to see other rain measurements)
** Current wind speed in m/s (hover to see current wind gust speed)